Mount Vernon, Washington
Current Conditions -  °F | °C
As of 6:55 PM on Wednesday 26 Nov 2014 (Local Time) from KBVS Reporting Station
Overcast Overcast  
Wind Chill: 57°   Ceiling: 3200
Heat Index: 57°   Visibility: 10mi
Dew Point: 54°   Wind: 7mph
Humidity: 88%   Direction: 150°SSE
Pressure: 29.88"   Gusts: NA
Location:  48.42°N, 122.33°W
Report Text: KBVS 270255Z AUTO 15006KT 10SM SCT026 BKN032 OVC100 14/12 A2988 RMK A01 P000
Loading
Personal Weather Stations






























Interactive Weather Map New forecast layout! Learn more

10-Day Weather Forecast

Advertisements
Track Severe Weather on mobile